createdAt,value
2017-10-03T00:00:02.403Z,0
2017-10-03T00:01:04.331Z,0
2017-10-03T00:02:05.937Z,0
2017-10-03T00:03:07.543Z,0
2017-10-03T00:04:11.021Z,0
2017-10-03T00:05:14.334Z,0
2017-10-03T00:06:17.992Z,0
2017-10-03T00:07:20.715Z,0
2017-10-03T00:08:23.669Z,0
2017-10-03T00:09:27.216Z,0
2017-10-03T00:10:29.071Z,0
2017-10-03T00:11:32.574Z,0
2017-10-03T00:12:36.019Z,0
2017-10-03T00:13:38.794Z,0
2017-10-03T00:14:42.995Z,0
2017-10-03T00:15:46.464Z,0
2017-10-03T00:16:50.620Z,0
2017-10-03T00:17:53.419Z,0
2017-10-03T00:18:55.114Z,0
2017-10-03T00:19:56.824Z,0
2017-10-03T00:20:58.441Z,0
2017-10-03T00:22:00.047Z,0
2017-10-03T00:23:03.405Z,0
2017-10-03T00:24:06.792Z,0
2017-10-03T00:25:10.410Z,0
2017-10-03T00:26:14.191Z,0
2017-10-03T00:27:18.168Z,0
2017-10-03T00:28:21.917Z,0
2017-10-03T00:29:25.542Z,0
2017-10-03T00:30:28.662Z,0
2017-10-03T00:31:32.009Z,0
2017-10-03T00:32:35.373Z,0
2017-10-03T00:33:37.640Z,0
2017-10-03T00:34:39.898Z,0
2017-10-03T00:35:43.798Z,0
2017-10-03T00:36:47.078Z,0
2017-10-03T00:37:50.597Z,0
2017-10-03T00:38:54.430Z,0
2017-10-03T00:39:57.195Z,0
2017-10-03T00:40:58.773Z,0
2017-10-03T00:42:00.379Z,0
2017-10-03T00:43:04.039Z,0
2017-10-03T00:44:07.853Z,0
2017-10-03T00:45:11.394Z,0
2017-10-03T00:46:14.974Z,0
2017-10-03T00:47:18.117Z,0
2017-10-03T00:48:22.423Z,0
2017-10-03T00:49:25.908Z,0
2017-10-03T00:50:29.287Z,0
2017-10-03T00:51:32.585Z,0
2017-10-03T00:52:36.748Z,0
2017-10-03T00:53:40.722Z,0
2017-10-03T00:54:42.865Z,0
2017-10-03T00:55:47.184Z,0
2017-10-03T00:56:51.466Z,0
2017-10-03T00:57:54.514Z,0
2017-10-03T00:58:58.500Z,0
2017-10-03T01:00:00.092Z,0
2017-10-03T01:01:01.701Z,0
2017-10-03T01:02:03.310Z,0
2017-10-03T01:03:04.922Z,0
2017-10-03T01:04:06.534Z,0
2017-10-03T01:05:08.143Z,0
2017-10-03T01:06:09.750Z,0
2017-10-03T01:07:11.361Z,0
2017-10-03T01:08:12.974Z,0
2017-10-03T01:09:14.578Z,0
2017-10-03T01:10:16.195Z,0
2017-10-03T01:11:17.801Z,0
2017-10-03T01:12:19.412Z,0
2017-10-03T01:13:21.026Z,0
2017-10-03T01:14:22.636Z,0
2017-10-03T01:15:24.240Z,0
2017-10-03T01:16:25.848Z,0
2017-10-03T01:17:27.463Z,0
2017-10-03T01:18:29.068Z,0
2017-10-03T01:19:30.683Z,0
2017-10-03T01:20:32.293Z,0
2017-10-03T01:21:33.900Z,0
2017-10-03T01:22:35.511Z,0
2017-10-03T01:23:37.120Z,0
2017-10-03T01:24:38.730Z,0
2017-10-03T01:25:40.334Z,0
2017-10-03T01:26:41.951Z,0
2017-10-03T01:27:43.556Z,0
2017-10-03T01:28:45.159Z,0
2017-10-03T01:29:46.772Z,0
2017-10-03T01:30:48.378Z,0
2017-10-03T01:31:49.988Z,0
2017-10-03T01:32:51.595Z,0
2017-10-03T01:33:53.209Z,0
2017-10-03T01:34:54.815Z,0
2017-10-03T01:35:56.424Z,0
2017-10-03T01:36:58.033Z,0
2017-10-03T01:37:59.638Z,0
2017-10-03T01:39:01.248Z,0
2017-10-03T01:40:02.861Z,0
2017-10-03T01:41:04.474Z,0
2017-10-03T01:42:06.084Z,0
2017-10-03T01:43:07.688Z,0
2017-10-03T01:44:09.291Z,0
2017-10-03T01:45:10.903Z,0
2017-10-03T01:46:12.505Z,0
2017-10-03T01:47:14.117Z,0
2017-10-03T01:48:15.720Z,0
2017-10-03T01:49:17.333Z,0
2017-10-03T01:50:18.937Z,0
2017-10-03T01:51:20.541Z,0
2017-10-03T01:52:22.154Z,0
2017-10-03T01:53:23.763Z,0
2017-10-03T01:54:25.379Z,0
2017-10-03T01:55:26.983Z,0
2017-10-03T01:56:28.597Z,0
2017-10-03T01:57:30.197Z,0
2017-10-03T01:58:33.285Z,0
2017-10-03T01:59:34.851Z,0
2017-10-03T02:00:36.465Z,0
2017-10-03T02:01:38.075Z,0
2017-10-03T02:02:39.679Z,0
2017-10-03T02:03:41.285Z,0
2017-10-03T02:04:42.893Z,0
2017-10-03T02:05:44.503Z,0
2017-10-03T02:06:46.105Z,0
2017-10-03T02:07:47.710Z,0
2017-10-03T02:08:49.320Z,0
2017-10-03T02:09:50.933Z,0
2017-10-03T02:10:52.542Z,0
2017-10-03T02:11:54.151Z,0
2017-10-03T02:12:55.756Z,0
2017-10-03T02:13:57.369Z,0
2017-10-03T02:14:58.974Z,0
2017-10-03T02:16:00.587Z,0
2017-10-03T02:17:02.195Z,0
2017-10-03T02:18:03.802Z,0
2017-10-03T02:19:05.412Z,0
2017-10-03T02:20:07.023Z,0
2017-10-03T02:21:08.628Z,0
2017-10-03T02:22:10.234Z,0
2017-10-03T02:23:11.847Z,0
2017-10-03T02:24:13.454Z,0
2017-10-03T02:25:15.061Z,0
2017-10-03T02:26:16.673Z,0
2017-10-03T02:27:18.275Z,0
2017-10-03T02:28:19.880Z,0
2017-10-03T02:29:21.493Z,0
2017-10-03T02:30:23.099Z,0
2017-10-03T02:31:24.708Z,0
2017-10-03T02:32:26.317Z,0
2017-10-03T02:33:27.920Z,0
2017-10-03T02:34:29.532Z,0
2017-10-03T02:35:31.136Z,0
2017-10-03T02:36:32.751Z,0
2017-10-03T02:37:34.353Z,0
2017-10-03T02:38:35.966Z,0
2017-10-03T02:39:37.569Z,0
2017-10-03T02:40:39.180Z,0
2017-10-03T02:41:40.792Z,0
2017-10-03T02:42:42.393Z,0
2017-10-03T02:43:44.009Z,0
2017-10-03T02:44:45.613Z,0
2017-10-03T02:45:47.225Z,0
2017-10-03T02:46:48.833Z,0
2017-10-03T02:47:50.445Z,0
2017-10-03T02:48:52.047Z,0
2017-10-03T02:49:53.663Z,0
2017-10-03T02:50:55.267Z,0
2017-10-03T02:51:56.882Z,0
2017-10-03T02:52:58.488Z,0
2017-10-03T02:54:00.102Z,0
2017-10-03T02:55:01.708Z,0
2017-10-03T02:56:03.316Z,0
2017-10-03T02:57:04.920Z,0
2017-10-03T02:58:06.532Z,0
2017-10-03T02:59:08.144Z,0
2017-10-03T03:00:09.750Z,0
2017-10-03T03:01:11.358Z,0
2017-10-03T03:02:12.964Z,0
2017-10-03T03:03:14.570Z,0
2017-10-03T03:04:16.178Z,0
2017-10-03T03:05:17.784Z,0
2017-10-03T03:06:19.397Z,0
2017-10-03T03:07:21.013Z,0
2017-10-03T03:08:22.615Z,0
2017-10-03T03:09:24.219Z,0
2017-10-03T03:10:25.832Z,0
2017-10-03T03:11:27.445Z,0
2017-10-03T03:12:29.062Z,0
2017-10-03T03:13:30.672Z,0
2017-10-03T03:14:32.285Z,0
2017-10-03T03:15:33.886Z,0
2017-10-03T03:16:35.493Z,0
2017-10-03T03:17:37.102Z,0
2017-10-03T03:18:38.706Z,0
2017-10-03T03:19:40.319Z,0
2017-10-03T03:20:41.930Z,0
2017-10-03T03:21:43.542Z,0
2017-10-03T03:22:45.146Z,0
2017-10-03T03:23:46.749Z,0
2017-10-03T03:24:48.363Z,0
2017-10-03T03:25:49.972Z,0
2017-10-03T03:26:51.577Z,0
2017-10-03T03:27:53.184Z,0
2017-10-03T03:28:54.800Z,0
2017-10-03T03:29:56.402Z,0
2017-10-03T03:30:58.013Z,0
2017-10-03T03:31:59.620Z,0
2017-10-03T03:33:01.232Z,0
2017-10-03T03:34:02.837Z,0
2017-10-03T03:35:04.445Z,0
2017-10-03T03:36:06.059Z,0
2017-10-03T03:37:08.323Z,0
2017-10-03T03:38:09.934Z,0
2017-10-03T03:39:11.540Z,0
2017-10-03T03:40:13.152Z,0
2017-10-03T03:41:14.762Z,0
2017-10-03T03:42:16.375Z,0
2017-10-03T03:43:17.981Z,0
2017-10-03T03:44:19.594Z,0
2017-10-03T03:45:21.196Z,0
2017-10-03T03:46:22.804Z,0
2017-10-03T03:47:24.412Z,0
2017-10-03T03:48:26.022Z,0
2017-10-03T03:49:27.633Z,0
2017-10-03T03:50:29.248Z,0
2017-10-03T03:51:30.856Z,0
2017-10-03T03:52:32.464Z,0
2017-10-03T03:53:34.073Z,0
2017-10-03T03:54:35.678Z,0
2017-10-03T03:55:37.295Z,0
2017-10-03T03:56:38.900Z,0
2017-10-03T03:57:40.516Z,0
2017-10-03T03:58:42.123Z,0
2017-10-03T03:59:43.731Z,0
2017-10-03T04:00:45.338Z,0
2017-10-03T04:01:46.950Z,0
2017-10-03T04:02:48.561Z,0
2017-10-03T04:03:50.172Z,0
2017-10-03T04:04:51.779Z,0
2017-10-03T04:05:53.389Z,0
2017-10-03T04:06:54.993Z,0
2017-10-03T04:07:56.633Z,0
2017-10-03T04:08:58.242Z,0
2017-10-03T04:09:59.859Z,0
2017-10-03T04:11:01.662Z,0
2017-10-03T04:12:03.269Z,0
2017-10-03T04:13:04.872Z,0
2017-10-03T04:14:06.482Z,0
2017-10-03T04:15:08.090Z,0
2017-10-03T04:16:09.701Z,0
2017-10-03T04:17:11.308Z,0
2017-10-03T04:18:12.921Z,0
2017-10-03T04:19:14.533Z,0
2017-10-03T04:20:16.134Z,0
2017-10-03T04:21:17.747Z,0
2017-10-03T04:22:19.352Z,0
2017-10-03T04:23:20.967Z,0
2017-10-03T04:24:22.571Z,0
2017-10-03T04:25:24.185Z,0
2017-10-03T04:26:25.792Z,0
2017-10-03T04:27:27.398Z,0
2017-10-03T04:28:29.010Z,0
2017-10-03T04:29:30.620Z,0
2017-10-03T04:30:32.227Z,0
2017-10-03T04:31:33.834Z,0
2017-10-03T04:32:35.449Z,0
2017-10-03T04:33:37.067Z,0
2017-10-03T04:34:38.672Z,0
2017-10-03T04:35:40.279Z,0
2017-10-03T04:36:41.982Z,0
2017-10-03T04:37:43.585Z,0
2017-10-03T04:38:45.197Z,0
2017-10-03T04:39:46.805Z,0
2017-10-03T04:40:48.418Z,0
2017-10-03T04:41:50.022Z,0
2017-10-03T04:42:51.631Z,0
2017-10-03T04:43:53.238Z,0
2017-10-03T04:44:54.849Z,0
2017-10-03T04:45:56.462Z,0
2017-10-03T04:46:58.903Z,0
2017-10-03T04:48:00.512Z,0
2017-10-03T04:49:02.125Z,0
2017-10-03T04:50:03.733Z,0
2017-10-03T04:51:05.342Z,0
2017-10-03T04:52:06.953Z,0
2017-10-03T04:53:08.559Z,0
2017-10-03T04:54:10.214Z,0
2017-10-03T04:55:12.198Z,0
2017-10-03T04:56:13.780Z,0
2017-10-03T04:57:15.383Z,0
2017-10-03T04:58:16.991Z,0
2017-10-03T04:59:18.605Z,0
2017-10-03T05:00:20.216Z,0
2017-10-03T05:01:21.823Z,0
2017-10-03T05:02:23.435Z,0
2017-10-03T05:03:25.041Z,0
2017-10-03T05:04:26.652Z,0
2017-10-03T05:05:28.257Z,0
2017-10-03T05:06:29.870Z,0
2017-10-03T05:07:31.476Z,4
2017-10-03T05:08:33.083Z,4
2017-10-03T05:09:34.699Z,4
2017-10-03T05:10:36.306Z,4
2017-10-03T05:11:37.911Z,8
2017-10-03T05:12:39.533Z,4
2017-10-03T05:13:41.144Z,8
2017-10-03T05:14:42.754Z,8
2017-10-03T05:15:44.360Z,8
2017-10-03T05:16:45.977Z,12
2017-10-03T05:17:47.585Z,12
2017-10-03T05:18:49.195Z,16
2017-10-03T05:19:50.801Z,20
2017-10-03T05:20:52.413Z,20
2017-10-03T05:21:54.020Z,28
2017-10-03T05:22:55.634Z,32
2017-10-03T05:23:57.242Z,36
2017-10-03T05:24:59.374Z,40
2017-10-03T05:26:00.978Z,44
2017-10-03T05:27:02.592Z,52
2017-10-03T05:28:04.198Z,60
2017-10-03T05:29:05.814Z,64
2017-10-03T05:30:07.422Z,68
2017-10-03T05:31:09.039Z,72
2017-10-03T05:32:10.650Z,72
2017-10-03T05:33:12.251Z,80
2017-10-03T05:34:13.865Z,92
2017-10-03T05:35:15.479Z,104
2017-10-03T05:36:17.088Z,88
2017-10-03T05:37:18.698Z,104
2017-10-03T05:38:20.312Z,132
2017-10-03T05:39:21.920Z,148
2017-10-03T05:40:23.535Z,164
2017-10-03T05:41:25.140Z,180
2017-10-03T05:42:26.755Z,204
2017-10-03T05:43:28.364Z,208
2017-10-03T05:44:29.983Z,244
2017-10-03T05:45:31.593Z,268
2017-10-03T05:46:33.216Z,280
2017-10-03T05:47:34.813Z,288
2017-10-03T05:48:36.429Z,288
2017-10-03T05:49:38.046Z,292
2017-10-03T05:50:39.650Z,300
2017-10-03T05:51:41.262Z,316
2017-10-03T05:52:42.882Z,356
2017-10-03T05:53:44.495Z,376
2017-10-03T05:54:46.105Z,380
2017-10-03T05:55:47.711Z,388
2017-10-03T05:56:49.326Z,408
2017-10-03T05:57:50.941Z,444
2017-10-03T05:58:52.551Z,492
2017-10-03T05:59:54.164Z,512
2017-10-03T06:00:55.778Z,556
2017-10-03T06:01:57.391Z,564
2017-10-03T06:02:58.998Z,568
2017-10-03T06:04:00.606Z,616
2017-10-03T06:05:02.232Z,660
2017-10-03T06:06:03.842Z,716
2017-10-03T06:07:05.456Z,748
2017-10-03T06:08:07.071Z,768
2017-10-03T06:09:08.677Z,800
2017-10-03T06:10:10.288Z,880
2017-10-03T06:11:11.902Z,924
2017-10-03T06:12:13.514Z,932
2017-10-03T06:13:15.124Z,908
2017-10-03T06:14:16.736Z,896
2017-10-03T06:15:18.354Z,1060
2017-10-03T06:16:19.965Z,1052
2017-10-03T06:17:21.573Z,1060
2017-10-03T06:18:23.184Z,1160
2017-10-03T06:19:24.802Z,1288
2017-10-03T06:20:26.414Z,1280
2017-10-03T06:21:28.027Z,1292
2017-10-03T06:22:29.638Z,1440
2017-10-03T06:23:31.255Z,1376
2017-10-03T06:24:32.865Z,1372
2017-10-03T06:25:34.481Z,1260
2017-10-03T06:26:36.090Z,1060
2017-10-03T06:27:37.710Z,1116
2017-10-03T06:28:39.322Z,1276
2017-10-03T06:29:40.942Z,1492
2017-10-03T06:30:42.547Z,1916
2017-10-03T06:31:44.163Z,1940
2017-10-03T06:32:45.775Z,1996
2017-10-03T06:33:47.387Z,2004
2017-10-03T06:34:49.001Z,1812
2017-10-03T06:35:50.614Z,1916
2017-10-03T06:36:52.226Z,1704
2017-10-03T06:37:53.842Z,1772
2017-10-03T06:38:55.461Z,1904
2017-10-03T06:39:57.072Z,1980
2017-10-03T06:40:58.685Z,2312
2017-10-03T06:42:00.309Z,2448
2017-10-03T06:43:01.929Z,3060
2017-10-03T06:44:03.541Z,3532
2017-10-03T06:45:05.150Z,3312
2017-10-03T06:46:06.771Z,3956
2017-10-03T06:47:08.387Z,3904
2017-10-03T06:48:10.001Z,4184
2017-10-03T06:49:11.618Z,4576
2017-10-03T06:50:13.235Z,6248
2017-10-03T06:51:14.844Z,6144
2017-10-03T06:52:16.457Z,3736
2017-10-03T06:53:18.073Z,2732
2017-10-03T06:54:19.686Z,2676
2017-10-03T06:55:21.302Z,3052
2017-10-03T06:56:22.914Z,3300
2017-10-03T06:57:24.529Z,3752
2017-10-03T06:58:26.146Z,3672
2017-10-03T06:59:27.759Z,3952
2017-10-03T07:00:29.369Z,4108
2017-10-03T07:01:30.982Z,5756
2017-10-03T07:02:32.600Z,6152
2017-10-03T07:03:34.218Z,4916
2017-10-03T07:04:35.837Z,3468
2017-10-03T07:05:37.449Z,2064
2017-10-03T07:06:39.058Z,1740
2017-10-03T07:07:40.673Z,1944
2017-10-03T07:08:42.292Z,2020
2017-10-03T07:09:43.903Z,1984
2017-10-03T07:10:45.517Z,1864
2017-10-03T07:11:47.138Z,1724
2017-10-03T07:12:48.750Z,1528
2017-10-03T07:13:50.367Z,1380
2017-10-03T07:14:51.976Z,1320
2017-10-03T07:15:53.594Z,1328
2017-10-03T07:16:55.206Z,1708
2017-10-03T07:17:56.827Z,2080
2017-10-03T07:18:58.437Z,1932
2017-10-03T07:20:00.046Z,2136
2017-10-03T07:21:01.681Z,3064
2017-10-03T07:22:03.294Z,3080
2017-10-03T07:23:04.908Z,2572
2017-10-03T07:24:06.526Z,2708
2017-10-03T07:25:08.137Z,3420
2017-10-03T07:26:09.757Z,4196
2017-10-03T07:27:11.373Z,3984
2017-10-03T07:28:12.986Z,6480
2017-10-03T07:29:14.599Z,5432
2017-10-03T07:30:16.215Z,9420
2017-10-03T07:31:17.828Z,25600
2017-10-03T07:32:19.450Z,26368
2017-10-03T07:33:21.065Z,21504
2017-10-03T07:34:22.681Z,8756
2017-10-03T07:35:24.290Z,8472
2017-10-03T07:36:25.908Z,8628
2017-10-03T07:37:27.515Z,6808
2017-10-03T07:38:29.130Z,7864
2017-10-03T07:39:30.746Z,13732
2017-10-03T07:40:32.367Z,18336
2017-10-03T07:41:33.982Z,26176
2017-10-03T07:42:35.598Z,11316
2017-10-03T07:43:37.217Z,11176
2017-10-03T07:44:38.829Z,10604
2017-10-03T07:45:40.450Z,10548
2017-10-03T07:46:42.062Z,11628
2017-10-03T07:47:43.684Z,9144
2017-10-03T07:48:45.293Z,5380
2017-10-03T07:49:46.910Z,5480
2017-10-03T07:50:48.525Z,12160
2017-10-03T07:51:50.143Z,25152
2017-10-03T07:52:51.764Z,15904
2017-10-03T07:53:53.386Z,34848
2017-10-03T07:54:55.005Z,9988
2017-10-03T07:55:56.622Z,10136
2017-10-03T07:56:58.234Z,9200
2017-10-03T07:57:59.852Z,6868
2017-10-03T07:59:01.472Z,11076
2017-10-03T08:00:03.087Z,17024
2017-10-03T08:01:04.704Z,11340
2017-10-03T08:02:06.325Z,7340
2017-10-03T08:03:07.945Z,7852
2017-10-03T08:04:09.553Z,7104
2017-10-03T08:05:11.168Z,10028
2017-10-03T08:06:12.788Z,8196
2017-10-03T08:07:14.406Z,9504
2017-10-03T08:08:16.023Z,11352
2017-10-03T08:09:17.644Z,9472
2017-10-03T08:10:19.262Z,7016
2017-10-03T08:11:20.878Z,5684
2017-10-03T08:12:22.492Z,5568
2017-10-03T08:13:24.107Z,6176
2017-10-03T08:14:25.728Z,5248
2017-10-03T08:15:27.341Z,5916
2017-10-03T08:16:28.956Z,5716
2017-10-03T08:17:30.576Z,5372
2017-10-03T08:18:32.187Z,5280
2017-10-03T08:19:33.798Z,6748
2017-10-03T08:20:35.418Z,7580
2017-10-03T08:21:37.036Z,5236
2017-10-03T08:22:38.652Z,5000
2017-10-03T08:23:40.271Z,4556
2017-10-03T08:24:41.887Z,5224
2017-10-03T08:25:43.499Z,5232
2017-10-03T08:26:45.119Z,7076
2017-10-03T08:27:46.730Z,7652
2017-10-03T08:28:48.350Z,7352
2017-10-03T08:29:49.967Z,8388
2017-10-03T08:30:51.606Z,8016
2017-10-03T08:31:53.199Z,9616
2017-10-03T08:32:54.816Z,8636
2017-10-03T08:33:56.430Z,9936
2017-10-03T08:34:58.048Z,10996
2017-10-03T08:35:59.660Z,11264
2017-10-03T08:37:01.286Z,11204
2017-10-03T08:38:02.902Z,11020
2017-10-03T08:39:04.511Z,8948
2017-10-03T08:40:06.125Z,11432
2017-10-03T08:41:07.747Z,17696
2017-10-03T08:42:09.366Z,22368
2017-10-03T08:43:10.982Z,16992
2017-10-03T08:44:12.595Z,15368
2017-10-03T08:45:14.219Z,12288
2017-10-03T08:46:15.836Z,9356
2017-10-03T08:47:17.447Z,6468
2017-10-03T08:48:19.059Z,5520
2017-10-03T08:49:20.682Z,5368
2017-10-03T08:50:22.296Z,5700
2017-10-03T08:51:23.916Z,7536
2017-10-03T08:52:25.535Z,5900
2017-10-03T08:53:27.145Z,5720
2017-10-03T08:54:28.761Z,5276
2017-10-03T08:55:30.381Z,5540
2017-10-03T08:56:31.997Z,4432
2017-10-03T08:57:33.609Z,4524
2017-10-03T08:58:35.227Z,4672
2017-10-03T08:59:36.851Z,5232
2017-10-03T09:00:38.466Z,5128
2017-10-03T09:01:40.078Z,4332
2017-10-03T09:02:41.690Z,4440
2017-10-03T09:03:43.311Z,5912
2017-10-03T09:04:44.928Z,6304
2017-10-03T09:05:46.544Z,5512
2017-10-03T09:06:48.169Z,7272
2017-10-03T09:07:49.783Z,11452
2017-10-03T09:08:51.403Z,10744
2017-10-03T09:09:53.012Z,12112
2017-10-03T09:10:54.632Z,21632
2017-10-03T09:11:56.248Z,41856
2017-10-03T09:12:57.872Z,22464
2017-10-03T09:13:59.491Z,17952
2017-10-03T09:15:01.110Z,18496
2017-10-03T09:16:02.721Z,14664
2017-10-03T09:17:04.343Z,17472
2017-10-03T09:18:05.959Z,18688
2017-10-03T09:19:07.581Z,9876
2017-10-03T09:20:09.193Z,5516
2017-10-03T09:21:10.815Z,5480
2017-10-03T09:22:12.427Z,8644
2017-10-03T09:23:14.043Z,12532
2017-10-03T09:24:15.663Z,8288
2017-10-03T09:25:17.277Z,19776
2017-10-03T09:26:18.900Z,13388
2017-10-03T09:27:20.520Z,20608
2017-10-03T09:28:22.141Z,17184
2017-10-03T09:29:23.756Z,14576
2017-10-03T09:30:25.376Z,11560
2017-10-03T09:31:26.989Z,7528
2017-10-03T09:32:28.608Z,4380
2017-10-03T09:33:30.220Z,3420
2017-10-03T09:34:31.842Z,3292
2017-10-03T09:35:33.456Z,2984
2017-10-03T09:36:35.076Z,2144
2017-10-03T09:37:36.690Z,1728
2017-10-03T09:38:38.310Z,1908
2017-10-03T09:39:39.921Z,2228
2017-10-03T09:40:41.545Z,8012
2017-10-03T09:41:43.166Z,6280
2017-10-03T09:42:44.778Z,7812
2017-10-03T09:43:46.389Z,5776
2017-10-03T09:44:48.008Z,6128
2017-10-03T09:45:49.624Z,7116
2017-10-03T09:46:51.234Z,5736
2017-10-03T09:47:52.856Z,4536
2017-10-03T09:48:54.468Z,4204
2017-10-03T09:49:56.088Z,3944
2017-10-03T09:50:57.705Z,4988
2017-10-03T09:51:59.323Z,6708
2017-10-03T09:53:00.936Z,47552
2017-10-03T09:54:02.555Z,49824
2017-10-03T09:55:04.174Z,49248
2017-10-03T09:56:05.794Z,47488
2017-10-03T09:57:07.410Z,49600
2017-10-03T09:58:09.040Z,14536
2017-10-03T09:59:10.651Z,16476
2017-10-03T10:00:12.273Z,59744
2017-10-03T10:01:13.892Z,34144
2017-10-03T10:02:15.515Z,15896
2017-10-03T10:03:17.133Z,19968
2017-10-03T10:04:18.753Z,43584
2017-10-03T10:05:20.377Z,60768
2017-10-03T10:06:21.999Z,53568
2017-10-03T10:07:23.617Z,48416
2017-10-03T10:08:25.235Z,20640
2017-10-03T10:09:26.861Z,18464
2017-10-03T10:10:28.486Z,16544
2017-10-03T10:11:30.136Z,15940
2017-10-03T10:12:31.754Z,13692
2017-10-03T10:13:33.365Z,36256
2017-10-03T10:14:34.982Z,10436
2017-10-03T10:15:36.608Z,14076
2017-10-03T10:16:38.227Z,14004
2017-10-03T10:17:39.857Z,10404
2017-10-03T10:18:41.493Z,8336
2017-10-03T10:19:43.096Z,11356
2017-10-03T10:20:44.719Z,29888
2017-10-03T10:21:46.335Z,49760
2017-10-03T10:22:47.962Z,53312
2017-10-03T10:23:49.579Z,33504
2017-10-03T10:24:51.205Z,13332
2017-10-03T10:25:52.825Z,19744
2017-10-03T10:26:54.449Z,6952
2017-10-03T10:27:56.065Z,5556
2017-10-03T10:28:57.680Z,5584
2017-10-03T10:29:59.307Z,4772
2017-10-03T10:31:00.931Z,4428
2017-10-03T10:32:02.550Z,4808
2017-10-03T10:33:04.167Z,6240
2017-10-03T10:34:05.788Z,6428
2017-10-03T10:35:07.408Z,7280
2017-10-03T10:36:09.022Z,7872
2017-10-03T10:37:10.639Z,45376
2017-10-03T10:38:12.267Z,45856
2017-10-03T10:39:13.885Z,45632
2017-10-03T10:40:15.510Z,44352
2017-10-03T10:41:17.129Z,43744
2017-10-03T10:42:18.752Z,44800
2017-10-03T10:43:20.373Z,23776
2017-10-03T10:44:21.998Z,43136
2017-10-03T10:45:23.617Z,41440
2017-10-03T10:46:25.246Z,38944
2017-10-03T10:47:26.869Z,41856
2017-10-03T10:48:28.484Z,9376
2017-10-03T10:49:30.108Z,58688
2017-10-03T10:50:31.735Z,13436
2017-10-03T10:51:33.359Z,50112
2017-10-03T10:52:34.980Z,10092
2017-10-03T10:53:36.611Z,6228
2017-10-03T10:54:38.230Z,5592
2017-10-03T10:55:39.849Z,4628
2017-10-03T10:56:41.467Z,4648
2017-10-03T10:57:43.084Z,49152
2017-10-03T10:58:44.793Z,38784
2017-10-03T10:59:46.422Z,34144
2017-10-03T11:00:48.049Z,43488
2017-10-03T11:01:49.802Z,45152
2017-10-03T11:02:51.418Z,44416
2017-10-03T11:03:53.039Z,43904
2017-10-03T11:04:54.662Z,11508
2017-10-03T11:05:56.293Z,12688
2017-10-03T11:06:57.913Z,42784
2017-10-03T11:07:59.536Z,44864
2017-10-03T11:09:01.168Z,43872
2017-10-03T11:10:02.787Z,11260
2017-10-03T11:11:04.402Z,11044
2017-10-03T11:12:06.022Z,9988
2017-10-03T11:13:07.648Z,9616
2017-10-03T11:14:09.274Z,36064
2017-10-03T11:15:10.893Z,48128
2017-10-03T11:16:12.524Z,47456
2017-10-03T11:17:14.149Z,49024
2017-10-03T11:18:15.772Z,39168
2017-10-03T11:19:17.400Z,18592
2017-10-03T11:20:19.021Z,11316
2017-10-03T11:21:20.655Z,10272
2017-10-03T11:22:22.283Z,9208
2017-10-03T11:23:23.904Z,9220
2017-10-03T11:24:25.531Z,11300
2017-10-03T11:25:27.150Z,12552
2017-10-03T11:26:28.772Z,21856
2017-10-03T11:27:30.393Z,13128
2017-10-03T11:28:32.019Z,13072
2017-10-03T11:29:33.638Z,13480
2017-10-03T11:30:35.265Z,19200
2017-10-03T11:31:36.883Z,50304
2017-10-03T11:32:38.504Z,39072
2017-10-03T11:33:40.123Z,50912
2017-10-03T11:34:41.745Z,13164
2017-10-03T11:35:43.372Z,40192
2017-10-03T11:36:44.992Z,12620
2017-10-03T11:37:46.619Z,11464
2017-10-03T11:38:48.235Z,8900
2017-10-03T11:39:49.860Z,7908
2017-10-03T11:40:51.478Z,7576
2017-10-03T11:41:53.102Z,9268
2017-10-03T11:42:54.725Z,10728
2017-10-03T11:43:56.347Z,10444
2017-10-03T11:44:57.969Z,10336
2017-10-03T11:45:59.589Z,9152
2017-10-03T11:47:01.203Z,7668
2017-10-03T11:48:02.826Z,5928
2017-10-03T11:49:04.446Z,5224
2017-10-03T11:50:06.073Z,13592
2017-10-03T11:51:07.690Z,6828
2017-10-03T11:52:09.308Z,6052
2017-10-03T11:53:10.924Z,6324
2017-10-03T11:54:12.547Z,8900
2017-10-03T11:55:14.169Z,8536
2017-10-03T11:56:15.781Z,7176
2017-10-03T11:57:17.399Z,4828
2017-10-03T11:58:19.019Z,3436
2017-10-03T11:59:20.642Z,2616
2017-10-03T12:00:22.254Z,3456
2017-10-03T12:01:23.869Z,5056
2017-10-03T12:02:25.488Z,39392
2017-10-03T12:03:27.111Z,30176
2017-10-03T12:04:28.736Z,49248
2017-10-03T12:05:30.357Z,29664
2017-10-03T12:06:31.981Z,35872
2017-10-03T12:07:33.603Z,48288
2017-10-03T12:08:35.227Z,44192
2017-10-03T12:09:36.851Z,10644
2017-10-03T12:10:38.467Z,12836
2017-10-03T12:11:40.092Z,17312
2017-10-03T12:12:41.708Z,13656
2017-10-03T12:13:43.332Z,12592
2017-10-03T12:14:44.948Z,13868
2017-10-03T12:15:46.574Z,14028
2017-10-03T12:16:48.184Z,14116
2017-10-03T12:17:49.808Z,20544
2017-10-03T12:18:51.450Z,21024
2017-10-03T12:19:53.053Z,16460
2017-10-03T12:20:54.672Z,16244
2017-10-03T12:21:56.293Z,15936
2017-10-03T12:22:57.908Z,15272
2017-10-03T12:23:59.525Z,14564
2017-10-03T12:25:01.146Z,13096
2017-10-03T12:26:02.767Z,10972
2017-10-03T12:27:04.387Z,9192
2017-10-03T12:28:05.999Z,7792
2017-10-03T12:29:07.621Z,6564
2017-10-03T12:30:09.234Z,5736
2017-10-03T12:31:10.852Z,5408
2017-10-03T12:32:12.467Z,4916
2017-10-03T12:33:14.085Z,4476
2017-10-03T12:34:15.707Z,3644
2017-10-03T12:35:17.325Z,3188
2017-10-03T12:36:18.946Z,3032
2017-10-03T12:37:20.558Z,2736
2017-10-03T12:38:22.173Z,2232
2017-10-03T12:39:23.791Z,1856
2017-10-03T12:40:25.414Z,1596
2017-10-03T12:41:27.028Z,1440
2017-10-03T12:42:28.646Z,1420
2017-10-03T12:43:30.265Z,1620
2017-10-03T12:44:31.882Z,1668
2017-10-03T12:45:33.495Z,1900
2017-10-03T12:46:35.112Z,2324
2017-10-03T12:47:36.735Z,2280
2017-10-03T12:48:38.356Z,1624
2017-10-03T12:49:39.975Z,1064
2017-10-03T12:50:41.588Z,1236
2017-10-03T12:51:43.204Z,2732
2017-10-03T12:52:44.819Z,2988
2017-10-03T12:53:46.441Z,3476
2017-10-03T12:54:48.071Z,3252
2017-10-03T12:55:49.689Z,2708
2017-10-03T12:56:51.309Z,2240
2017-10-03T12:57:52.920Z,2016
2017-10-03T12:58:54.539Z,1896
2017-10-03T12:59:56.151Z,1788
2017-10-03T13:00:57.771Z,1784
2017-10-03T13:01:59.383Z,1864
2017-10-03T13:03:01.002Z,2128
2017-10-03T13:04:02.619Z,2712
2017-10-03T13:05:04.229Z,3424
2017-10-03T13:06:05.851Z,3908
2017-10-03T13:07:07.461Z,4304
2017-10-03T13:08:09.079Z,4788
2017-10-03T13:09:10.691Z,5332
2017-10-03T13:10:12.313Z,5708
2017-10-03T13:11:13.929Z,5916
2017-10-03T13:12:15.546Z,5996
2017-10-03T13:13:17.156Z,6064
2017-10-03T13:14:18.775Z,6312
2017-10-03T13:15:20.391Z,6896
2017-10-03T13:16:22.010Z,7736
2017-10-03T13:17:23.620Z,8740
2017-10-03T13:18:25.239Z,9456
2017-10-03T13:19:26.850Z,10484
2017-10-03T13:20:28.469Z,11980
2017-10-03T13:21:30.086Z,11420
2017-10-03T13:22:31.702Z,9964
2017-10-03T13:23:33.322Z,9548
2017-10-03T13:24:34.933Z,9440
2017-10-03T13:25:36.551Z,9984
2017-10-03T13:26:38.169Z,9100
2017-10-03T13:27:39.791Z,7840
2017-10-03T13:28:41.401Z,7268
2017-10-03T13:29:43.021Z,7620
2017-10-03T13:30:44.631Z,8780
2017-10-03T13:31:46.250Z,9136
2017-10-03T13:32:47.873Z,8276
2017-10-03T13:33:49.488Z,6948
2017-10-03T13:34:51.106Z,5560
2017-10-03T13:35:52.720Z,4908
2017-10-03T13:36:54.339Z,4472
2017-10-03T13:37:55.951Z,4360
2017-10-03T13:38:57.573Z,3708
2017-10-03T13:39:59.190Z,3068
2017-10-03T13:41:00.805Z,2848
2017-10-03T13:42:02.421Z,3172
2017-10-03T13:43:04.038Z,3280
2017-10-03T13:44:05.658Z,2720
2017-10-03T13:45:07.271Z,2868
2017-10-03T13:46:08.900Z,2984
2017-10-03T13:47:10.521Z,2912
2017-10-03T13:48:12.142Z,2820
2017-10-03T13:49:13.755Z,3520
2017-10-03T13:50:15.368Z,4752
2017-10-03T13:51:16.986Z,4652
2017-10-03T13:52:18.610Z,5264
2017-10-03T13:53:20.220Z,6396
2017-10-03T13:54:21.841Z,6440
2017-10-03T13:55:23.448Z,6376
2017-10-03T13:56:25.066Z,6376
2017-10-03T13:57:26.674Z,5800
2017-10-03T13:58:28.298Z,5148
2017-10-03T13:59:29.905Z,4980
2017-10-03T14:00:31.528Z,5180
2017-10-03T14:01:33.140Z,4592
2017-10-03T14:02:34.759Z,4548
2017-10-03T14:03:36.366Z,4852
2017-10-03T14:04:37.985Z,4636
2017-10-03T14:05:39.595Z,4760
2017-10-03T14:06:41.215Z,5132
2017-10-03T14:07:42.828Z,4496
2017-10-03T14:08:44.448Z,3876
2017-10-03T14:09:46.059Z,3440